Main page
METAR-TAF:

METAR-TAF

Airports :

Gwadar, Pakistan

Gwadar International Airport

latitude: 25-13-59N, longitude: 062-19-46E, elevation: 29 m

METAR: missing

Time: 15:59 (10:59 UTC)

Forecast

The report was made 7 hours and 29 minutes ago, at 03:30 UTC
Forecast valid from 18 at 06 UTC to 19 at 06 UTC
Wind 8 kt from the East with gusts up to 18 kt
Visibility: 3000 m
Few clouds at a height of 2000 ft
Scattered clouds at a height of 10000 ft
widespread dust
Temporary
from 19 at 00 UTC to 19 at 04 UTC
Wind 5 kt from the Northeast with gusts up to 15 kt
Visibility: 1500 m
Scattered clouds at a height of 3000 ft
Overcast at a height of 10000 ft
rain

TAF: OPGD 180330Z 1806/1906 09008G18KT 3000 DU FEW020 SCT100 TEMPO 1900/1904 05005G15KT 1500 RA SCT030 OVC100

Weather observations and forecasts of more than 4000 airports (METAR and TAF reports).

The available stations are represented by yellow and red dots on the map.

Hover mouse over dot to see the name of the station.

Then click to see weather observations and forecasts.

To change the map : click on the green buttons with a black cross to zoom in, on the green button with a dash to zoom out, or on the green arrows for adjacent maps.


METAR-TAF: